ZGOW Airport Information

Runway Information
Runway 04 Length 9186 ft width 148 ft
Elevation ft Threshold ft Heading 40
Runway 22 Length 9186 ft Width 148 ft
Elevation 15 ft Threshold ft Heading 220
Airport Frequencies
Airport Navaids
Airport Weather Information & NOTAM
ADDS - METARS form results

(0601 UTC 03 December 2022)
Data provider http://aviationweather.gov/metar/data/
 
Forecast for: ZGOW (SHAN-TOU , CN)
Text: TAF ZGOW 030311Z 0306/0406 07003MPS 6000 FEW020 SCT050 TX23/0406Z TN15/0322Z
Forecast period: 0600 UTC 03 December 2022 to 0600 UTC 04 December 2022
Forecast type: FROM: standard forecast or significant change
Winds: from the ENE (70 degrees) at 7 MPH (6 knots; 3.1 m/s)
Visibility: 4 miles (6 km)
Ceiling: at least 12,000 feet AGL
Clouds: few clouds at 2000 feet AGL
scattered clouds at 5000 feet AGL
Weather: no significant weather forecast for this period